createdAt,value
2018-06-29T00:00:46.474Z,49.00
2018-06-29T00:03:14.081Z,49.33
2018-06-29T00:05:41.787Z,49.25
2018-06-29T00:08:09.479Z,48.37
2018-06-29T00:10:37.779Z,49.45
2018-06-29T00:13:05.494Z,49.89
2018-06-29T00:15:33.215Z,49.55
2018-06-29T00:18:02.017Z,49.50
2018-06-29T00:20:29.625Z,49.37
2018-06-29T00:22:57.367Z,49.17
2018-06-29T00:25:25.058Z,49.84
2018-06-29T00:27:52.822Z,49.40
2018-06-29T00:32:47.648Z,50.56
2018-06-29T00:35:15.374Z,50.25
2018-06-29T00:37:43.080Z,50.56
2018-06-29T00:40:10.840Z,51.21
2018-06-29T00:42:38.499Z,50.50
2018-06-29T00:45:06.202Z,51.21
2018-06-29T00:47:33.817Z,50.89
2018-06-29T00:50:01.507Z,51.21
2018-06-29T00:52:29.133Z,51.48
2018-06-29T00:54:56.899Z,51.26
2018-06-29T00:57:24.605Z,52.08
2018-06-29T00:59:52.337Z,52.02
2018-06-29T01:02:20.353Z,52.26
2018-06-29T01:04:48.073Z,51.77
2018-06-29T01:07:15.873Z,52.64
2018-06-29T01:09:43.681Z,52.13
2018-06-29T01:12:11.475Z,52.03
2018-06-29T01:14:39.243Z,52.42
2018-06-29T01:17:06.975Z,51.60
2018-06-29T01:19:34.697Z,51.33
2018-06-29T01:22:02.392Z,51.42
2018-06-29T01:24:30.032Z,51.44
2018-06-29T01:26:58.456Z,51.09
2018-06-29T01:29:26.050Z,51.45
2018-06-29T01:31:53.764Z,51.02
2018-06-29T01:34:21.481Z,50.62
2018-06-29T01:36:49.194Z,51.24
2018-06-29T01:39:16.985Z,51.30
2018-06-29T01:41:44.662Z,51.38
2018-06-29T01:44:12.279Z,51.92
2018-06-29T01:46:39.964Z,51.96
2018-06-29T01:49:07.580Z,52.66
2018-06-29T01:51:35.195Z,52.17
2018-06-29T01:54:02.805Z,52.36
2018-06-29T01:56:30.495Z,51.76
2018-06-29T01:58:58.180Z,51.33
2018-06-29T02:01:25.793Z,51.00
2018-06-29T02:03:53.467Z,51.25
2018-06-29T02:06:21.162Z,51.51
2018-06-29T02:08:48.857Z,51.50
2018-06-29T02:11:16.513Z,51.38
2018-06-29T02:13:44.158Z,52.39
2018-06-29T02:16:11.813Z,52.22
2018-06-29T02:18:39.439Z,52.40
2018-06-29T02:21:07.059Z,52.68
2018-06-29T02:23:34.776Z,52.94
2018-06-29T02:26:02.645Z,53.24
2018-06-29T02:28:30.408Z,54.08
2018-06-29T02:30:58.088Z,53.39
2018-06-29T02:33:25.845Z,53.62
2018-06-29T02:35:53.512Z,53.55
2018-06-29T02:38:21.283Z,52.86
2018-06-29T02:40:48.890Z,52.44
2018-06-29T02:43:17.573Z,53.00
2018-06-29T02:45:45.279Z,52.68
2018-06-29T02:48:13.056Z,52.10
2018-06-29T02:50:40.742Z,52.51
2018-06-29T02:53:08.446Z,52.93
2018-06-29T02:55:36.151Z,53.55
2018-06-29T02:58:03.806Z,54.52
2018-06-29T03:00:31.573Z,54.69
2018-06-29T03:02:59.333Z,54.83
2018-06-29T03:05:27.038Z,55.11
2018-06-29T03:07:54.759Z,55.35
2018-06-29T03:10:22.562Z,55.45
2018-06-29T03:12:50.289Z,55.87
2018-06-29T03:15:17.953Z,55.88
2018-06-29T03:17:45.777Z,55.09
2018-06-29T03:20:13.433Z,55.38
2018-06-29T03:22:41.148Z,55.02
2018-06-29T03:25:09.071Z,55.70
2018-06-29T03:27:36.673Z,55.44
2018-06-29T03:30:04.953Z,55.83
2018-06-29T03:32:45.671Z,55.32
2018-06-29T03:35:13.625Z,55.96
2018-06-29T03:37:41.395Z,55.32
2018-06-29T03:40:09.004Z,55.04
2018-06-29T03:42:36.720Z,55.42
2018-06-29T03:45:04.451Z,55.53
2018-06-29T03:47:32.237Z,55.54
2018-06-29T03:49:59.944Z,54.92
2018-06-29T03:52:27.645Z,54.74
2018-06-29T03:54:55.404Z,55.03
2018-06-29T03:57:23.179Z,56.27
2018-06-29T03:59:50.846Z,55.50
2018-06-29T04:02:18.524Z,54.96
2018-06-29T04:04:46.268Z,55.03
2018-06-29T04:07:13.963Z,55.17
2018-06-29T04:09:41.699Z,54.21
2018-06-29T04:12:09.413Z,54.46
2018-06-29T04:14:37.020Z,53.88
2018-06-29T04:17:04.736Z,55.04
2018-06-29T04:19:32.412Z,54.46
2018-06-29T04:22:00.052Z,54.11
2018-06-29T04:24:27.752Z,54.04
2018-06-29T04:26:55.489Z,53.42
2018-06-29T04:29:23.186Z,53.06
2018-06-29T04:31:50.919Z,53.71
2018-06-29T04:34:18.603Z,53.65
2018-06-29T04:36:46.330Z,53.03
2018-06-29T04:39:14.118Z,52.82
2018-06-29T04:41:41.800Z,52.76
2018-06-29T04:44:09.456Z,53.18
2018-06-29T04:46:37.196Z,52.26
2018-06-29T04:49:05.103Z,51.50
2018-06-29T04:51:32.811Z,51.33
2018-06-29T04:54:00.457Z,51.26
2018-06-29T04:56:28.085Z,52.29
2018-06-29T04:58:55.703Z,52.48
2018-06-29T05:01:23.497Z,52.53
2018-06-29T05:03:51.637Z,51.56
2018-06-29T05:06:19.297Z,51.36
2018-06-29T05:08:47.370Z,51.29
2018-06-29T05:11:15.093Z,49.67
2018-06-29T05:13:42.793Z,50.78
2018-06-29T05:16:10.489Z,52.28
2018-06-29T05:18:38.209Z,50.59
2018-06-29T05:21:12.665Z,51.89
2018-06-29T05:23:40.350Z,52.40
2018-06-29T05:26:08.073Z,52.58
2018-06-29T05:28:35.690Z,51.95
2018-06-29T05:31:03.357Z,52.41
2018-06-29T05:33:31.023Z,52.16
2018-06-29T05:35:58.730Z,51.30
2018-06-29T05:38:27.696Z,50.33
2018-06-29T05:40:55.359Z,50.88
2018-06-29T05:43:23.961Z,51.11
2018-06-29T05:45:51.629Z,51.08
2018-06-29T05:48:19.287Z,49.50
2018-06-29T05:50:46.914Z,48.17
2018-06-29T05:53:14.662Z,48.55
2018-06-29T05:55:42.404Z,47.86
2018-06-29T05:58:10.077Z,47.15
2018-06-29T06:00:38.477Z,47.35
2018-06-29T06:03:06.823Z,48.69
2018-06-29T06:05:34.435Z,46.37
2018-06-29T06:08:02.116Z,46.68
2018-06-29T06:10:29.829Z,46.00
2018-06-29T06:12:57.551Z,45.44
2018-06-29T06:15:25.303Z,46.61
2018-06-29T06:17:52.997Z,46.44
2018-06-29T06:20:20.728Z,45.36
2018-06-29T06:22:48.395Z,44.81
2018-06-29T06:25:16.159Z,44.85
2018-06-29T06:27:43.884Z,44.73
2018-06-29T06:30:11.595Z,45.88
2018-06-29T06:32:39.561Z,45.64
2018-06-29T06:35:07.217Z,45.02
2018-06-29T06:37:34.831Z,44.97
2018-06-29T06:40:02.455Z,45.81
2018-06-29T06:42:30.132Z,46.55
2018-06-29T06:44:57.717Z,45.00
2018-06-29T06:47:25.405Z,44.85
2018-06-29T06:49:53.036Z,43.59
2018-06-29T06:52:20.686Z,43.41
2018-06-29T06:54:48.592Z,43.62
2018-06-29T06:57:16.192Z,43.82
2018-06-29T06:59:43.795Z,45.85
2018-06-29T07:02:11.404Z,45.39
2018-06-29T07:04:39.121Z,45.67
2018-06-29T07:07:06.776Z,47.22
2018-06-29T07:09:34.457Z,46.00
2018-06-29T07:12:02.054Z,45.12
2018-06-29T07:14:29.693Z,45.11
2018-06-29T07:16:57.338Z,45.63
2018-06-29T07:19:25.003Z,44.83
2018-06-29T07:21:52.849Z,45.07
2018-06-29T07:24:20.578Z,44.59
2018-06-29T07:26:48.325Z,44.34
2018-06-29T07:29:16.155Z,43.93
2018-06-29T07:31:43.766Z,42.48
2018-06-29T07:34:11.469Z,42.51
2018-06-29T07:36:39.100Z,41.94
2018-06-29T07:39:07.735Z,42.16
2018-06-29T07:41:35.365Z,41.56
2018-06-29T07:44:03.964Z,41.94
2018-06-29T07:46:31.650Z,41.00
2018-06-29T07:48:59.261Z,40.84
2018-06-29T07:51:26.920Z,41.15
2018-06-29T07:53:54.628Z,39.74
2018-06-29T07:56:22.375Z,40.45
2018-06-29T07:58:50.521Z,39.87
2018-06-29T08:01:18.106Z,40.77
2018-06-29T08:03:45.858Z,41.41
2018-06-29T08:06:13.438Z,41.39
2018-06-29T08:08:41.135Z,40.47
2018-06-29T08:11:08.788Z,40.05
2018-06-29T08:13:36.451Z,39.79
2018-06-29T08:16:04.625Z,40.34
2018-06-29T08:18:32.243Z,40.32
2018-06-29T08:20:59.879Z,39.96
2018-06-29T08:23:30.517Z,40.44
2018-06-29T08:26:15.766Z,40.27
2018-06-29T08:28:43.394Z,39.66
2018-06-29T08:31:11.256Z,39.23
2018-06-29T08:33:39.200Z,39.17
2018-06-29T08:36:07.178Z,39.17
2018-06-29T08:38:35.424Z,38.36
2018-06-29T08:41:03.181Z,38.22
2018-06-29T08:43:30.918Z,37.12
2018-06-29T08:45:58.619Z,37.51
2018-06-29T08:48:26.291Z,37.39
2018-06-29T08:50:54.098Z,38.21
2018-06-29T08:53:21.796Z,37.70
2018-06-29T08:55:49.509Z,37.08
2018-06-29T08:58:17.419Z,36.61
2018-06-29T09:00:45.041Z,36.97
2018-06-29T09:03:12.710Z,37.42
2018-06-29T09:05:40.449Z,38.40
2018-06-29T09:08:08.587Z,38.37
2018-06-29T09:10:36.324Z,38.12
2018-06-29T09:13:03.981Z,38.37
2018-06-29T09:15:31.619Z,36.66
2018-06-29T09:17:59.331Z,37.07
2018-06-29T09:20:27.096Z,35.84
2018-06-29T09:22:54.783Z,35.69
2018-06-29T09:25:22.868Z,35.55
2018-06-29T09:27:50.589Z,36.26
2018-06-29T09:30:18.280Z,35.71
2018-06-29T09:32:46.001Z,35.60
2018-06-29T09:35:13.658Z,35.76
2018-06-29T09:37:41.454Z,35.78
2018-06-29T09:40:09.136Z,35.80
2018-06-29T09:42:37.006Z,36.13
2018-06-29T09:45:04.971Z,35.34
2018-06-29T09:47:32.595Z,34.91
2018-06-29T09:50:00.282Z,34.09
2018-06-29T09:52:27.929Z,33.85
2018-06-29T09:54:55.680Z,34.59
2018-06-29T09:57:23.322Z,34.27
2018-06-29T09:59:51.154Z,33.55
2018-06-29T10:02:18.810Z,34.27
2018-06-29T10:04:46.736Z,32.82
2018-06-29T10:07:14.437Z,33.28
2018-06-29T10:09:42.159Z,33.29
2018-06-29T10:12:09.853Z,32.16
2018-06-29T10:14:37.511Z,32.68
2018-06-29T10:17:05.215Z,32.79
2018-06-29T10:19:33.002Z,31.30
2018-06-29T10:22:00.613Z,31.22
2018-06-29T10:24:28.286Z,30.93
2018-06-29T10:26:55.969Z,29.90
2018-06-29T10:29:23.651Z,31.00
2018-06-29T10:31:51.315Z,29.80
2018-06-29T10:34:18.972Z,31.07
2018-06-29T10:36:46.697Z,30.32
2018-06-29T10:39:15.274Z,29.01
2018-06-29T10:41:43.501Z,29.16
2018-06-29T10:44:11.245Z,29.55
2018-06-29T10:46:39.887Z,28.66
2018-06-29T10:49:07.622Z,29.19
2018-06-29T10:51:35.322Z,27.75
2018-06-29T10:54:03.288Z,29.21
2018-06-29T10:56:31.016Z,29.97
2018-06-29T10:58:58.784Z,28.34
2018-06-29T11:01:26.540Z,28.64
2018-06-29T11:03:54.404Z,28.06
2018-06-29T11:06:22.049Z,28.31
2018-06-29T11:08:49.765Z,27.40
2018-06-29T11:11:17.522Z,26.62
2018-06-29T11:13:45.720Z,28.09
2018-06-29T11:16:13.448Z,26.02
2018-06-29T11:18:41.203Z,27.24
2018-06-29T11:21:08.889Z,27.55
2018-06-29T11:23:36.647Z,27.67
2018-06-29T11:26:04.542Z,27.38
2018-06-29T11:28:32.551Z,27.69
2018-06-29T11:31:00.240Z,27.42
2018-06-29T11:33:27.877Z,26.16
2018-06-29T11:35:55.767Z,25.64
2018-06-29T11:38:23.383Z,27.29
2018-06-29T11:40:51.047Z,26.72
2018-06-29T11:43:18.797Z,24.14
2018-06-29T11:45:46.611Z,24.48
2018-06-29T11:48:14.343Z,24.20
2018-06-29T11:50:42.079Z,23.85
2018-06-29T11:53:09.833Z,23.48
2018-06-29T11:55:37.509Z,20.99
2018-06-29T11:58:05.659Z,20.76
2018-06-29T12:00:33.326Z,20.24
2018-06-29T12:03:01.004Z,19.75
2018-06-29T12:05:28.629Z,15.50
2018-06-29T12:07:56.272Z,14.62
2018-06-29T12:10:24.019Z,13.37
2018-06-29T12:12:51.736Z,11.92
2018-06-29T12:15:19.492Z,11.06
2018-06-29T12:17:47.307Z,10.58
2018-06-29T12:20:15.023Z,9.51
2018-06-29T12:22:42.848Z,9.26
2018-06-29T12:25:10.622Z,8.09
2018-06-29T12:27:38.371Z,8.47
2018-06-29T12:30:06.062Z,8.09
2018-06-29T12:32:33.921Z,7.50
2018-06-29T12:35:02.278Z,7.13
2018-06-29T12:37:29.983Z,7.34
2018-06-29T12:39:57.754Z,7.89
2018-06-29T12:42:25.513Z,7.11
2018-06-29T12:44:53.224Z,6.77
2018-06-29T12:47:20.950Z,6.62
2018-06-29T12:49:48.705Z,6.84
2018-06-29T12:52:16.443Z,8.39
2018-06-29T12:54:44.261Z,8.16
2018-06-29T12:57:12.069Z,7.06
2018-06-29T12:59:39.825Z,7.43
2018-06-29T13:02:07.557Z,6.20
2018-06-29T13:04:35.275Z,6.31
2018-06-29T13:07:03.033Z,6.22
2018-06-29T13:09:30.626Z,6.04
2018-06-29T13:11:58.570Z,6.49
2018-06-29T13:14:26.300Z,6.76
2018-06-29T13:16:53.975Z,6.50
2018-06-29T13:19:21.764Z,5.88
2018-06-29T13:21:49.491Z,6.67
2018-06-29T13:24:17.158Z,7.53
2018-06-29T13:26:45.054Z,6.70
2018-06-29T13:29:12.760Z,6.06
2018-06-29T13:31:40.557Z,6.79
2018-06-29T13:34:08.243Z,6.45
2018-06-29T13:36:36.033Z,5.37
2018-06-29T13:39:07.152Z,4.73
2018-06-29T13:41:34.897Z,3.47
2018-06-29T13:44:02.694Z,3.24
2018-06-29T13:46:30.503Z,3.19
2018-06-29T13:48:58.261Z,3.73
2018-06-29T13:51:25.921Z,4.24
2018-06-29T13:53:53.597Z,3.78
2018-06-29T13:56:21.298Z,3.37
2018-06-29T13:58:50.011Z,3.39
2018-06-29T14:01:17.645Z,3.63
2018-06-29T14:03:45.330Z,3.21
2018-06-29T14:06:13.015Z,4.04
2018-06-29T14:08:41.687Z,5.39
2018-06-29T14:11:09.372Z,5.18
2018-06-29T14:13:37.061Z,4.48
2018-06-29T14:16:04.875Z,5.55
2018-06-29T14:18:32.522Z,5.70
2018-06-29T14:21:00.254Z,4.74
2018-06-29T14:23:27.970Z,4.74
2018-06-29T14:25:55.614Z,6.45
2018-06-29T14:28:24.276Z,5.19
2018-06-29T14:30:51.914Z,4.55
2018-06-29T14:33:19.692Z,5.58
2018-06-29T14:35:47.366Z,6.22
2018-06-29T14:38:15.050Z,8.10
2018-06-29T14:40:42.730Z,8.00
2018-06-29T14:43:10.402Z,9.85
2018-06-29T14:45:38.105Z,12.96
2018-06-29T14:48:05.828Z,14.08
2018-06-29T14:50:33.543Z,13.56
2018-06-29T14:53:01.180Z,13.92
2018-06-29T14:55:28.963Z,13.27
2018-06-29T14:57:56.709Z,11.03
2018-06-29T15:00:24.371Z,10.53
2018-06-29T15:02:52.080Z,10.70
2018-06-29T15:05:19.735Z,10.33
2018-06-29T15:07:47.424Z,9.85
2018-06-29T15:10:15.205Z,7.45
2018-06-29T15:12:42.833Z,6.93
2018-06-29T15:15:10.489Z,5.87
2018-06-29T15:17:38.227Z,5.12
2018-06-29T15:20:06.907Z,4.81
2018-06-29T15:22:34.575Z,5.74
2018-06-29T15:25:02.270Z,5.40
2018-06-29T15:27:30.013Z,4.76
2018-06-29T15:29:57.746Z,4.32
2018-06-29T15:32:25.439Z,5.53
2018-06-29T15:34:53.109Z,4.81
2018-06-29T15:37:20.789Z,6.43
2018-06-29T15:39:48.478Z,4.70
2018-06-29T15:42:16.166Z,5.10
2018-06-29T15:44:43.850Z,4.08
2018-06-29T15:47:11.692Z,3.56
2018-06-29T15:49:39.596Z,4.09
2018-06-29T15:52:07.242Z,5.07
2018-06-29T15:54:35.037Z,5.80
2018-06-29T15:57:02.711Z,4.95
2018-06-29T15:59:30.388Z,5.58
2018-06-29T16:01:58.179Z,5.80
2018-06-29T16:04:25.925Z,5.68
2018-06-29T16:06:53.618Z,4.71
2018-06-29T16:09:21.298Z,3.56
2018-06-29T16:11:49.002Z,3.64
2018-06-29T16:14:16.766Z,3.35
2018-06-29T16:16:45.086Z,2.83
2018-06-29T16:19:12.823Z,3.00
2018-06-29T16:21:40.664Z,2.70
2018-06-29T16:24:08.261Z,2.98
2018-06-29T16:26:35.893Z,2.37
2018-06-29T16:29:03.675Z,1.78
2018-06-29T16:31:31.424Z,3.22
2018-06-29T16:33:59.173Z,4.29
2018-06-29T16:36:26.849Z,5.47
2018-06-29T16:38:54.577Z,7.33
2018-06-29T16:41:22.277Z,9.37
2018-06-29T16:43:49.895Z,10.85
2018-06-29T16:46:17.503Z,12.91
2018-06-29T16:48:45.132Z,13.51
2018-06-29T16:51:12.856Z,14.02
2018-06-29T16:53:40.506Z,12.44
2018-06-29T16:56:08.345Z,11.89
2018-06-29T16:58:36.024Z,11.25
2018-06-29T17:01:03.765Z,10.94
2018-06-29T17:03:31.493Z,10.47
2018-06-29T17:05:59.178Z,10.36
2018-06-29T17:08:26.854Z,10.76
2018-06-29T17:10:54.669Z,11.03
2018-06-29T17:13:22.370Z,10.28
2018-06-29T17:15:50.127Z,9.17
2018-06-29T17:18:17.763Z,8.61
2018-06-29T17:20:45.479Z,9.60
2018-06-29T17:23:13.231Z,9.77
2018-06-29T17:25:40.901Z,8.52
2018-06-29T17:28:08.623Z,8.27
2018-06-29T17:30:36.319Z,9.65
2018-06-29T17:33:03.988Z,12.45
2018-06-29T17:35:31.808Z,13.09
2018-06-29T17:37:59.518Z,15.34
2018-06-29T17:40:27.234Z,14.96
2018-06-29T17:42:54.948Z,15.06
2018-06-29T17:45:22.618Z,16.46
2018-06-29T17:47:50.307Z,16.51
2018-06-29T17:50:18.008Z,17.36
2018-06-29T17:52:45.771Z,17.42
2018-06-29T17:55:13.466Z,17.62
2018-06-29T17:57:41.148Z,17.65
2018-06-29T18:00:09.180Z,16.85
2018-06-29T18:02:36.806Z,15.83
2018-06-29T18:05:04.873Z,16.95
2018-06-29T18:07:32.564Z,15.70
2018-06-29T18:10:00.230Z,15.98
2018-06-29T18:12:28.129Z,16.37
2018-06-29T18:14:55.828Z,16.80
2018-06-29T18:17:23.517Z,16.03
2018-06-29T18:19:51.192Z,16.18
2018-06-29T18:22:18.784Z,17.13
2018-06-29T18:24:46.445Z,17.69
2018-06-29T18:27:14.146Z,17.14
2018-06-29T18:29:42.017Z,17.39
2018-06-29T18:32:09.701Z,18.94
2018-06-29T18:34:37.529Z,19.09
2018-06-29T18:37:05.239Z,20.23
2018-06-29T18:39:32.931Z,20.84
2018-06-29T18:42:00.594Z,20.97
2018-06-29T18:44:28.286Z,23.14
2018-06-29T18:46:56.048Z,21.97
2018-06-29T18:49:23.749Z,22.94
2018-06-29T18:51:51.439Z,23.75
2018-06-29T18:54:19.140Z,23.62
2018-06-29T18:56:46.922Z,23.78
2018-06-29T18:59:14.699Z,24.93
2018-06-29T19:01:42.358Z,24.97
2018-06-29T19:04:10.128Z,25.80
2018-06-29T19:06:37.862Z,26.76
2018-06-29T19:09:08.824Z,27.38
2018-06-29T19:11:36.979Z,27.83
2018-06-29T19:14:05.067Z,28.32
2018-06-29T19:16:33.062Z,28.18
2018-06-29T19:19:00.735Z,28.42
2018-06-29T19:21:28.554Z,28.87
2018-06-29T19:23:56.284Z,29.18
2018-06-29T19:26:24.094Z,29.50
2018-06-29T19:28:52.058Z,29.91
2018-06-29T19:31:19.927Z,29.74
2018-06-29T19:33:47.652Z,30.38
2018-06-29T19:36:15.343Z,30.94
2018-06-29T19:38:43.072Z,31.19
2018-06-29T19:41:10.833Z,32.32
2018-06-29T19:43:38.538Z,33.44
2018-06-29T19:46:06.268Z,34.70
2018-06-29T19:48:34.036Z,36.04
2018-06-29T19:51:01.697Z,36.85
2018-06-29T19:53:29.495Z,37.90
2018-06-29T19:55:57.138Z,37.63
2018-06-29T19:58:24.970Z,39.37
2018-06-29T20:00:52.689Z,39.88
2018-06-29T20:03:20.415Z,40.03
2018-06-29T20:05:48.108Z,40.97
2018-06-29T20:08:15.917Z,40.82
2018-06-29T20:10:43.669Z,41.25
2018-06-29T20:13:11.355Z,41.79
2018-06-29T20:15:39.150Z,42.83
2018-06-29T20:18:06.869Z,42.76
2018-06-29T20:20:34.598Z,43.92
2018-06-29T20:23:02.427Z,44.12
2018-06-29T20:25:30.465Z,44.49
2018-06-29T20:27:58.403Z,44.40
2018-06-29T20:30:26.079Z,44.58
2018-06-29T20:32:53.834Z,44.48
2018-06-29T20:35:21.516Z,45.57
2018-06-29T20:37:49.211Z,44.89
2018-06-29T20:40:16.954Z,46.01
2018-06-29T20:42:44.572Z,46.54
2018-06-29T20:45:12.348Z,46.06
2018-06-29T20:47:40.046Z,47.03
2018-06-29T20:50:07.713Z,46.70
2018-06-29T20:52:35.592Z,46.03
2018-06-29T20:55:03.331Z,46.26
2018-06-29T20:57:31.151Z,46.49
2018-06-29T20:59:58.919Z,46.21
2018-06-29T21:02:26.674Z,47.04
2018-06-29T21:04:54.417Z,47.03
2018-06-29T21:07:22.165Z,46.93
2018-06-29T21:09:49.911Z,46.81
2018-06-29T21:12:17.698Z,47.72
2018-06-29T21:14:45.423Z,47.57
2018-06-29T21:17:13.139Z,48.32
2018-06-29T21:19:40.934Z,48.15
2018-06-29T21:22:09.090Z,48.70
2018-06-29T21:24:36.790Z,48.99
2018-06-29T21:27:04.457Z,49.29
2018-06-29T21:29:32.140Z,48.65
2018-06-29T21:31:59.863Z,49.06
2018-06-29T21:34:27.626Z,49.04
2018-06-29T21:36:55.354Z,49.77
2018-06-29T21:41:57.463Z,50.13
2018-06-29T21:44:25.140Z,49.67
2018-06-29T21:46:52.929Z,51.07
2018-06-29T21:49:20.580Z,51.29
2018-06-29T21:51:48.242Z,50.80
2018-06-29T21:54:15.969Z,50.91
2018-06-29T21:56:43.648Z,51.17
2018-06-29T21:59:11.412Z,51.47
2018-06-29T22:01:39.072Z,50.98
2018-06-29T22:04:07.044Z,51.92
2018-06-29T22:06:34.782Z,51.31
2018-06-29T22:09:02.670Z,52.12
2018-06-29T22:11:30.306Z,52.60
2018-06-29T22:13:57.942Z,51.99
2018-06-29T22:16:26.274Z,51.82
2018-06-29T22:18:53.916Z,52.15
2018-06-29T22:21:21.616Z,52.99
2018-06-29T22:23:49.269Z,52.08
2018-06-29T22:26:16.983Z,51.99
2018-06-29T22:28:44.762Z,51.75
2018-06-29T22:31:12.518Z,51.92
2018-06-29T22:33:40.265Z,51.67
2018-06-29T22:36:08.028Z,52.45
2018-06-29T22:38:35.728Z,52.81
2018-06-29T22:41:03.490Z,53.10
2018-06-29T22:43:31.177Z,52.95
2018-06-29T22:45:58.817Z,52.86
2018-06-29T22:48:26.460Z,53.09
2018-06-29T22:50:54.363Z,52.66
2018-06-29T22:53:22.063Z,52.67
2018-06-29T22:55:49.701Z,53.71
2018-06-29T22:58:17.332Z,53.45
2018-06-29T23:00:45.052Z,53.73
2018-06-29T23:03:12.861Z,53.64
2018-06-29T23:05:40.547Z,53.64
2018-06-29T23:08:09.919Z,54.35
2018-06-29T23:10:38.005Z,55.11
2018-06-29T23:13:06.552Z,54.16
2018-06-29T23:15:34.237Z,54.26
2018-06-29T23:18:01.930Z,54.38
2018-06-29T23:20:29.548Z,54.34
2018-06-29T23:22:57.099Z,54.71
2018-06-29T23:25:24.745Z,54.71
2018-06-29T23:27:52.411Z,55.01
2018-06-29T23:30:20.068Z,54.51
2018-06-29T23:32:47.741Z,54.76
2018-06-29T23:35:15.418Z,54.25
2018-06-29T23:37:43.135Z,55.34
2018-06-29T23:40:10.809Z,55.87
2018-06-29T23:42:38.502Z,54.83
2018-06-29T23:45:06.462Z,54.88
2018-06-29T23:47:34.141Z,54.69
2018-06-29T23:50:01.837Z,54.59
2018-06-29T23:52:29.602Z,54.30
2018-06-29T23:54:57.245Z,54.56
2018-06-29T23:57:24.893Z,53.78
2018-06-29T23:59:52.467Z,53.81
